createdAt,value
2023-04-02T00:00:04.915Z,0.90
2023-04-02T00:03:15.666Z,1.13
2023-04-02T00:06:33.320Z,0.80
2023-04-02T00:09:39.629Z,1.10
2023-04-02T00:12:59.863Z,1.30
2023-04-02T00:16:04.767Z,1.55
2023-04-02T00:19:13.033Z,1.10
2023-04-02T00:22:21.007Z,1.08
2023-04-02T00:25:28.308Z,0.98
2023-04-02T00:28:31.008Z,0.95
2023-04-02T00:31:34.946Z,0.80
2023-04-02T00:34:39.179Z,1.00
2023-04-02T00:37:42.318Z,0.80
2023-04-02T00:40:45.013Z,0.75
2023-04-02T00:43:51.138Z,1.00
2023-04-02T00:46:53.799Z,1.17
2023-04-02T00:50:17.636Z,1.40
2023-04-02T00:53:29.214Z,1.75
2023-04-02T00:56:37.065Z,2.13
2023-04-02T01:00:04.150Z,1.30
2023-04-02T01:03:13.506Z,1.88
2023-04-02T01:06:17.365Z,1.35
2023-04-02T01:09:56.609Z,0.90
2023-04-02T01:12:59.219Z,1.30
2023-04-02T01:16:31.246Z,1.55
2023-04-02T01:20:07.908Z,0.90
2023-04-02T01:23:19.232Z,1.83
2023-04-02T01:26:34.221Z,1.00
2023-04-02T01:29:57.032Z,1.23
2023-04-02T01:33:00.362Z,1.02
2023-04-02T01:36:21.464Z,1.10
2023-04-02T01:40:13.260Z,1.10
2023-04-02T01:43:58.458Z,1.70
2023-04-02T01:47:04.222Z,1.80
2023-04-02T01:50:33.000Z,1.75
2023-04-02T01:53:35.897Z,1.70
2023-04-02T01:56:38.656Z,1.90
2023-04-02T01:59:41.596Z,1.85
2023-04-02T02:02:47.610Z,1.55
2023-04-02T02:05:51.383Z,1.35
2023-04-02T02:08:56.407Z,1.52
2023-04-02T02:11:59.706Z,1.27
2023-04-02T02:15:03.051Z,1.30
2023-04-02T02:18:06.947Z,1.10
2023-04-02T02:21:10.911Z,1.20
2023-04-02T02:24:33.271Z,1.63
2023-04-02T02:28:05.586Z,1.52
2023-04-02T02:31:19.199Z,1.83
2023-04-02T02:34:30.812Z,1.85
2023-04-02T02:37:41.395Z,2.33
2023-04-02T02:40:46.562Z,3.70
2023-04-02T02:43:58.019Z,1.60
2023-04-02T02:47:16.403Z,1.80
2023-04-02T02:50:31.629Z,1.20
2023-04-02T02:53:46.752Z,1.60
2023-04-02T02:56:56.263Z,1.25
2023-04-02T03:00:01.610Z,0.80
2023-04-02T03:03:11.764Z,3.67
2023-04-02T03:06:17.401Z,1.23
2023-04-02T03:09:34.669Z,1.13
2023-04-02T03:13:03.395Z,1.25
2023-04-02T03:16:25.753Z,1.38
2023-04-02T03:19:34.914Z,1.40
2023-04-02T03:22:46.291Z,1.05
2023-04-02T03:26:02.523Z,2.05
2023-04-02T03:29:12.150Z,2.10
2023-04-02T03:32:18.232Z,2.20
2023-04-02T03:35:43.973Z,1.90
2023-04-02T03:39:02.668Z,2.30
2023-04-02T03:42:18.322Z,2.22
2023-04-02T03:45:32.356Z,2.28
2023-04-02T03:48:40.382Z,2.00
2023-04-02T03:51:55.264Z,2.08
2023-04-02T03:55:01.599Z,2.00
2023-04-02T03:58:27.830Z,1.93
2023-04-02T04:01:35.577Z,2.05
2023-04-02T04:04:41.190Z,2.25
2023-04-02T04:07:45.187Z,1.77
2023-04-02T04:10:52.335Z,2.22
2023-04-02T04:14:07.317Z,2.03
2023-04-02T04:17:10.049Z,2.10
2023-04-02T04:20:22.421Z,2.03
2023-04-02T04:23:30.884Z,1.95
2023-04-02T04:26:49.854Z,1.90
2023-04-02T04:30:06.469Z,1.70
2023-04-02T04:33:40.087Z,1.75
2023-04-02T04:36:54.515Z,1.63
2023-04-02T04:40:25.488Z,2.05
2023-04-02T04:44:01.093Z,3.03
2023-04-02T04:47:20.506Z,2.95
2023-04-02T04:50:29.191Z,3.05
2023-04-02T04:53:32.319Z,3.20
2023-04-02T04:56:38.055Z,2.63
2023-04-02T04:59:58.029Z,2.50
2023-04-02T05:03:07.337Z,2.50
2023-04-02T05:06:18.671Z,2.45
2023-04-02T05:09:33.547Z,2.42
2023-04-02T05:12:58.559Z,2.30
2023-04-02T05:16:32.155Z,5.80
2023-04-02T05:20:00.042Z,7.10
2023-04-02T05:23:23.961Z,6.83
2023-04-02T05:26:37.971Z,7.57
2023-04-02T05:29:43.201Z,6.40
2023-04-02T05:32:50.832Z,5.32
2023-04-02T05:36:10.186Z,6.25
2023-04-02T05:39:22.744Z,3.15
2023-04-02T05:42:32.432Z,2.20
2023-04-02T05:45:42.623Z,2.72
2023-04-02T05:48:50.171Z,2.95
2023-04-02T05:51:57.604Z,2.50
2023-04-02T05:55:12.930Z,4.20
2023-04-02T05:58:35.947Z,2.73
2023-04-02T06:01:59.314Z,3.17
2023-04-02T06:05:17.343Z,3.90
2023-04-02T06:08:58.402Z,26.85
2023-04-02T06:12:14.256Z,5.55
2023-04-02T06:15:21.359Z,4.70
2023-04-02T06:18:28.350Z,12.85
2023-04-02T06:21:32.290Z,3.73
2023-04-02T06:24:37.257Z,2.85
2023-04-02T06:27:40.552Z,2.40
2023-04-02T06:30:45.715Z,2.70
2023-04-02T06:33:52.745Z,2.70
2023-04-02T06:37:00.170Z,2.50
2023-04-02T06:40:06.250Z,3.15
2023-04-02T06:43:19.968Z,2.30
2023-04-02T06:46:52.224Z,2.72
2023-04-02T06:50:01.732Z,2.33
2023-04-02T06:53:06.746Z,2.92
2023-04-02T06:56:36.693Z,2.97
2023-04-02T06:59:39.848Z,3.63
2023-04-02T07:02:48.138Z,3.67
2023-04-02T07:05:51.560Z,3.55
2023-04-02T07:08:54.561Z,3.40
2023-04-02T07:11:58.898Z,3.97
2023-04-02T07:15:02.685Z,4.78
2023-04-02T07:18:05.790Z,4.25
2023-04-02T07:21:10.126Z,3.42
2023-04-02T07:24:13.548Z,3.42
2023-04-02T07:27:16.648Z,6.00
2023-04-02T07:30:20.294Z,4.47
2023-04-02T07:33:26.404Z,4.22
2023-04-02T07:36:30.947Z,3.95
2023-04-02T07:39:36.815Z,3.95
2023-04-02T07:42:40.759Z,4.10
2023-04-02T07:45:43.567Z,4.22
2023-04-02T07:48:47.300Z,4.30
2023-04-02T07:51:52.535Z,4.40
2023-04-02T07:54:55.178Z,4.03
2023-04-02T07:58:00.176Z,3.95
2023-04-02T08:01:04.159Z,3.92
2023-04-02T08:04:08.371Z,3.72
2023-04-02T08:07:11.729Z,3.83
2023-04-02T08:10:14.880Z,2.92
2023-04-02T08:13:19.077Z,4.60
2023-04-02T08:16:23.814Z,3.50
2023-04-02T08:19:28.001Z,4.07
2023-04-02T08:22:31.959Z,5.10
2023-04-02T08:25:35.085Z,5.28
2023-04-02T08:28:38.243Z,4.95
2023-04-02T08:31:41.193Z,4.60
2023-04-02T08:34:45.429Z,3.35
2023-04-02T08:37:48.286Z,3.28
2023-04-02T08:40:57.162Z,2.88
2023-04-02T08:44:14.815Z,3.17
2023-04-02T08:47:20.777Z,3.28
2023-04-02T08:50:27.488Z,3.22
2023-04-02T08:53:35.029Z,3.30
2023-04-02T08:57:03.561Z,5.88
2023-04-02T09:00:42.036Z,3.67
2023-04-02T09:03:50.436Z,4.00
2023-04-02T09:06:56.266Z,4.63
2023-04-02T09:09:59.490Z,3.58
2023-04-02T09:13:03.480Z,5.05
2023-04-02T09:16:13.282Z,3.38
2023-04-02T09:19:23.202Z,3.47
2023-04-02T09:22:28.562Z,3.33
2023-04-02T09:25:32.571Z,3.88
2023-04-02T09:28:35.483Z,4.47
2023-04-02T09:31:42.137Z,2.70
2023-04-02T09:34:45.318Z,3.72
2023-04-02T09:37:48.689Z,1.75
2023-04-02T09:40:59.186Z,2.13
2023-04-02T09:44:23.337Z,1.45
2023-04-02T09:47:29.223Z,1.80
2023-04-02T09:50:34.898Z,1.17
2023-04-02T09:53:46.675Z,2.22
2023-04-02T09:57:01.560Z,1.15
2023-04-02T10:03:33.517Z,0.60
2023-04-02T10:09:39.707Z,0.50
2023-04-02T10:12:44.007Z,0.60
2023-04-02T10:16:06.451Z,0.73
2023-04-02T10:19:15.166Z,0.30
2023-04-02T10:22:20.366Z,0.20
2023-04-02T10:25:25.869Z,0.30
2023-04-02T10:28:53.783Z,0.40
2023-04-02T10:32:14.690Z,0.98
2023-04-02T10:35:32.829Z,0.30
2023-04-02T10:38:42.252Z,0.70
2023-04-02T10:42:06.663Z,0.98
2023-04-02T10:45:47.236Z,0.70
2023-04-02T10:49:15.773Z,0.20
2023-04-02T10:52:27.512Z,0.80
2023-04-02T10:55:34.044Z,0.30
2023-04-02T10:58:43.329Z,0.40
2023-04-02T11:01:47.807Z,0.98
2023-04-02T11:04:51.609Z,0.40
2023-04-02T11:07:59.903Z,0.90
2023-04-02T11:11:09.801Z,1.00
2023-04-02T11:14:27.096Z,1.20
2023-04-02T11:17:29.813Z,1.30
2023-04-02T11:20:51.284Z,3.15
2023-04-02T11:24:04.136Z,0.88
2023-04-02T11:27:15.351Z,0.90
2023-04-02T11:30:26.600Z,0.40
2023-04-02T11:33:39.147Z,0.60
2023-04-02T11:36:54.104Z,0.80
2023-04-02T11:39:59.862Z,0.55
2023-04-02T11:43:33.772Z,0.90
2023-04-02T11:46:41.353Z,0.57
2023-04-02T11:50:05.184Z,0.70
2023-04-02T11:53:11.424Z,0.35
2023-04-02T11:56:21.613Z,0.30
2023-04-02T11:59:35.968Z,0.40
2023-04-02T12:03:14.203Z,0.30
2023-04-02T12:06:40.164Z,0.50
2023-04-02T12:09:51.646Z,0.30
2023-04-02T12:12:54.432Z,0.30
2023-04-02T12:15:58.557Z,0.40
2023-04-02T12:19:01.620Z,0.40
2023-04-02T12:22:04.566Z,0.50
2023-04-02T12:25:24.832Z,0.30
2023-04-02T12:28:29.526Z,0.25
2023-04-02T12:31:33.902Z,0.40
2023-04-02T12:34:36.846Z,0.40
2023-04-02T12:37:39.819Z,0.50
2023-04-02T12:40:55.417Z,0.52
2023-04-02T12:44:18.824Z,0.52
2023-04-02T12:47:21.962Z,0.60
2023-04-02T12:50:25.511Z,0.50
2023-04-02T12:53:38.219Z,0.68
2023-04-02T12:56:43.681Z,0.43
2023-04-02T12:59:46.421Z,0.45
2023-04-02T13:03:01.450Z,0.40
2023-04-02T13:06:04.837Z,0.40
2023-04-02T13:09:36.630Z,0.50
2023-04-02T13:12:41.281Z,0.57
2023-04-02T13:15:44.417Z,0.70
2023-04-02T13:18:49.206Z,2.53
2023-04-02T13:21:53.549Z,1.70
2023-04-02T13:24:56.646Z,7.00
2023-04-02T13:27:59.665Z,2.42
2023-04-02T13:31:02.753Z,0.93
2023-04-02T13:34:05.628Z,1.25
2023-04-02T13:37:11.095Z,1.20
2023-04-02T13:40:18.663Z,1.00
2023-04-02T13:43:21.457Z,1.25
2023-04-02T13:46:29.929Z,1.10
2023-04-02T13:49:33.001Z,1.60
2023-04-02T13:52:36.802Z,1.45
2023-04-02T13:55:42.726Z,1.63
2023-04-02T13:58:47.007Z,1.88
2023-04-02T14:01:51.156Z,2.08
2023-04-02T14:05:03.697Z,2.10
2023-04-02T14:08:24.903Z,2.78
2023-04-02T14:11:40.016Z,2.72
2023-04-02T14:15:04.162Z,3.05
2023-04-02T14:18:14.143Z,4.63
2023-04-02T14:21:35.816Z,5.05
2023-04-02T14:24:57.486Z,3.78
2023-04-02T14:28:15.080Z,3.60
2023-04-02T14:34:23.706Z,3.50
2023-04-02T14:37:51.990Z,4.88
2023-04-02T14:41:05.668Z,2.83
2023-04-02T14:44:09.471Z,2.75
2023-04-02T14:47:17.286Z,2.75
2023-04-02T14:50:40.185Z,2.97
2023-04-02T14:54:04.505Z,2.65
2023-04-02T14:57:19.165Z,3.55
2023-04-02T15:00:30.980Z,3.45
2023-04-02T15:03:38.374Z,3.10
2023-04-02T15:06:50.989Z,3.42
2023-04-02T15:10:24.605Z,3.10
2023-04-02T15:13:48.938Z,3.10
2023-04-02T15:16:52.156Z,3.30
2023-04-02T15:20:09.866Z,3.03
2023-04-02T15:26:27.575Z,3.28
2023-04-02T15:29:39.457Z,3.10
2023-04-02T15:32:43.650Z,2.97
2023-04-02T15:35:57.630Z,3.42
2023-04-02T15:39:19.241Z,3.63
2023-04-02T15:42:30.229Z,4.43
2023-04-02T15:45:38.848Z,4.75
2023-04-02T15:49:20.615Z,4.50
2023-04-02T15:52:39.040Z,4.75
2023-04-02T15:55:48.840Z,4.70
2023-04-02T15:59:09.894Z,5.18
2023-04-02T16:02:40.261Z,5.80
2023-04-02T16:05:50.664Z,6.40
2023-04-02T16:08:59.784Z,5.20
2023-04-02T16:12:14.936Z,5.53
2023-04-02T16:15:30.792Z,5.82
2023-04-02T16:18:42.037Z,6.47
2023-04-02T16:22:03.410Z,9.00
2023-04-02T16:25:21.087Z,6.90
2023-04-02T16:28:39.594Z,8.63
2023-04-02T16:31:52.704Z,5.72
2023-04-02T16:35:40.744Z,5.78
2023-04-02T16:38:59.403Z,8.15
2023-04-02T16:42:08.175Z,5.43
2023-04-02T16:45:34.682Z,5.25
2023-04-02T16:48:57.695Z,6.00
2023-04-02T16:52:00.425Z,5.90
2023-04-02T16:55:20.035Z,4.70
2023-04-02T16:58:29.267Z,5.05
2023-04-02T17:01:32.543Z,4.88
2023-04-02T17:04:56.894Z,4.95
2023-04-02T17:08:22.385Z,6.00
2023-04-02T17:11:30.268Z,5.53
2023-04-02T17:15:17.315Z,4.55
2023-04-02T17:18:31.951Z,5.10
2023-04-02T17:21:36.049Z,5.28
2023-04-02T17:25:00.628Z,5.75
2023-04-02T17:28:04.068Z,5.57
2023-04-02T17:31:28.118Z,5.30
2023-04-02T17:34:31.060Z,7.80
2023-04-02T17:37:41.484Z,6.28
2023-04-02T17:40:54.484Z,6.25
2023-04-02T17:44:22.240Z,7.10
2023-04-02T17:47:49.300Z,5.60
2023-04-02T17:50:58.351Z,7.07
2023-04-02T17:54:23.132Z,5.85
2023-04-02T17:57:55.635Z,5.15
2023-04-02T18:01:14.502Z,5.00
2023-04-02T18:04:29.171Z,5.35
2023-04-02T18:07:50.503Z,5.72
2023-04-02T18:10:57.001Z,7.72
2023-04-02T18:14:20.783Z,6.00
2023-04-02T18:18:01.793Z,5.95
2023-04-02T18:21:17.259Z,6.13
2023-04-02T18:24:28.527Z,5.95
2023-04-02T18:27:46.286Z,5.85
2023-04-02T18:31:14.063Z,5.28
2023-04-02T18:34:42.799Z,5.30
2023-04-02T18:37:48.376Z,7.25
2023-04-02T18:41:28.442Z,6.38
2023-04-02T18:44:40.784Z,6.63
2023-04-02T18:48:20.738Z,5.50
2023-04-02T18:51:26.878Z,6.55
2023-04-02T18:54:36.137Z,5.10
2023-04-02T18:57:40.720Z,6.22
2023-04-02T19:00:45.136Z,7.07
2023-04-02T19:03:52.136Z,6.38
2023-04-02T19:07:00.221Z,6.15
2023-04-02T19:10:12.052Z,12.45
2023-04-02T19:13:17.597Z,9.18
2023-04-02T19:16:41.545Z,8.02
2023-04-02T19:19:56.324Z,6.45
2023-04-02T19:23:40.569Z,5.35
2023-04-02T19:27:01.964Z,7.15
2023-04-02T19:30:35.958Z,6.22
2023-04-02T19:33:43.155Z,7.85
2023-04-02T19:40:29.518Z,6.35
2023-04-02T19:43:32.582Z,5.55
2023-04-02T19:46:35.468Z,5.00
2023-04-02T19:49:38.302Z,4.53
2023-04-02T19:52:41.144Z,5.38
2023-04-02T19:55:44.561Z,5.78
2023-04-02T19:58:47.325Z,4.25
2023-04-02T20:01:50.007Z,4.00
2023-04-02T20:04:53.115Z,5.85
2023-04-02T20:07:55.894Z,3.90
2023-04-02T20:10:59.132Z,4.25
2023-04-02T20:14:02.128Z,5.45
2023-04-02T20:17:04.980Z,3.60
2023-04-02T20:20:08.468Z,4.28
2023-04-02T20:23:11.775Z,5.82
2023-04-02T20:26:14.450Z,4.72
2023-04-02T20:29:17.295Z,5.35
2023-04-02T20:32:20.220Z,4.43
2023-04-02T20:35:23.117Z,4.03
2023-04-02T20:38:26.329Z,4.85
2023-04-02T20:41:29.154Z,9.65
2023-04-02T20:44:32.138Z,4.65
2023-04-02T20:47:37.386Z,4.00
2023-04-02T20:50:40.122Z,4.20
2023-04-02T20:53:43.192Z,5.80
2023-04-02T20:56:45.908Z,3.70
2023-04-02T20:59:49.033Z,4.72
2023-04-02T21:02:51.812Z,3.60
2023-04-02T21:05:54.922Z,4.22
2023-04-02T21:08:57.679Z,4.57
2023-04-02T21:12:00.331Z,3.70
2023-04-02T21:15:03.240Z,4.93
2023-04-02T21:18:06.155Z,3.10
2023-04-02T21:21:10.180Z,3.67
2023-04-02T21:24:13.007Z,3.65
2023-04-02T21:27:16.545Z,3.15
2023-04-02T21:30:19.259Z,2.83
2023-04-02T21:33:22.151Z,3.53
2023-04-02T21:36:33.465Z,3.38
2023-04-02T21:39:36.529Z,3.50
2023-04-02T21:42:39.113Z,2.75
2023-04-02T21:45:41.890Z,2.90
2023-04-02T21:48:45.285Z,3.40
2023-04-02T21:51:49.055Z,4.53
2023-04-02T21:54:51.803Z,3.28
2023-04-02T21:57:54.464Z,3.65
2023-04-02T22:00:57.787Z,3.53
2023-04-02T22:04:02.753Z,3.65
2023-04-02T22:07:06.050Z,3.90
2023-04-02T22:10:09.354Z,4.25
2023-04-02T22:13:12.181Z,4.65
2023-04-02T22:16:21.206Z,3.58
2023-04-02T22:19:24.002Z,3.70
2023-04-02T22:22:26.678Z,3.58
2023-04-02T22:25:29.422Z,3.92
2023-04-02T22:28:32.841Z,3.40
2023-04-02T22:31:36.090Z,3.63
2023-04-02T22:34:45.777Z,3.53
2023-04-02T22:37:48.431Z,3.50
2023-04-02T22:40:51.362Z,3.17
2023-04-02T22:43:57.332Z,3.33
2023-04-02T22:47:00.114Z,3.22
2023-04-02T22:50:02.948Z,2.72
2023-04-02T22:53:05.777Z,2.85
2023-04-02T22:56:13.805Z,2.67
2023-04-02T22:59:16.740Z,2.50
2023-04-02T23:02:19.543Z,2.92
2023-04-02T23:05:22.781Z,2.60
2023-04-02T23:08:25.637Z,2.90
2023-04-02T23:11:30.190Z,2.28
2023-04-02T23:14:32.927Z,2.50
2023-04-02T23:17:36.528Z,2.53
2023-04-02T23:20:39.215Z,2.85
2023-04-02T23:23:42.479Z,2.47
2023-04-02T23:26:45.281Z,2.15
2023-04-02T23:29:48.914Z,2.30
2023-04-02T23:32:51.595Z,2.22
2023-04-02T23:35:54.335Z,1.92
2023-04-02T23:39:01.795Z,2.28
2023-04-02T23:42:04.777Z,1.83
2023-04-02T23:45:07.854Z,2.25
2023-04-02T23:48:10.643Z,2.78
2023-04-02T23:51:15.695Z,3.00
2023-04-02T23:57:23.131Z,2.65
